Nearby METAR Reports

 

KMTN - Baltimore/Martin, Maryland, USA
Distance from station: SSE 8mi, 13km
Updated: Fri, 31-Oct-2014 11:50am EDT
Overcast
Overcast
 Wind from calm
Wind: Calm
Temperature: 52°F , 11°C
Dew Point: 36°F , 2°C
Humidity: 54%
Barometer: 29.99 inHg , 1015.6 hPa
Clouds: Overcast
Visibility: 10 miles , 16 km
Cloud details: Overcast 6000 ft
2014/10/31 15:50 KMTN 311550Z 00000KT 10SM OVC060 11/02 A2999
KDMH - Baltimore/Dwntwn, Maryland, USA
Distance from station: SW 12mi, 19km
Updated: Fri, 31-Oct-2014 11:54am EDT

 
Temperature: 52°F , 11°C
Dew Point: 34°F , 1°C
Humidity: 50%
Barometer: 29.98 inHg , 1015.2 hPa
2014/10/31 15:54 KDMH 311554Z AUTO 11/01 A2998 RMK AO1 SLP151 T01110011
 
KBWI - Balto/Wash Intl, Maryland, USA
Distance from station: SSW 20mi, 33km
Updated: Fri, 31-Oct-2014 11:54am EDT
Overcast
Overcast
 Wind from NE
Wind: NE 8 mph , 13 km/h
Temperature: 52°F , 11°C
Dew Point: 36°F , 2°C
Humidity: 54%
Barometer: 29.97 inHg , 1014.9 hPa
Clouds: Overcast
Visibility: 10 miles , 16 km
Cloud details: Overcast 5500 ft
2014/10/31 15:54 KBWI 311554Z 05007KT 10SM OVC055 11/02 A2997 RMK AO2 SLP147 T01110022 $
KDMW - Carroll Cnty, Maryland, USA
Distance from station: WNW 30mi, 48km
Updated: Fri, 31-Oct-2014 11:55am EDT
Overcast
Overcast
 Wind from ESE
Wind: ESE 6 mph , 9 km/h
Temperature: 48°F , 9°C
Wind Chill: 45°F , 7°C
Dew Point: 32°F , 0°C
Humidity: 54%
Barometer: 29.97 inHg , 1014.9 hPa
Clouds: Overcast
Visibility: 10 miles , 16 km
Cloud details: Overcast 5000 ft
2014/10/31 15:55 KDMW 311555Z AUTO 12005KT 10SM OVC050 09/00 A2997 RMK AO2
 
KNAK - Annapolis/Naval, Maryland, USA
Distance from station: S 30mi, 48km
Updated: Fri, 31-Oct-2014 11:54am EDT
Overcast
Overcast
 Wind from N
Wind: N 7 mph , 11 km/h
Temperature: 54°F , 12°C
Dew Point: 36°F , 2°C
Humidity: 51%
Barometer: 29.96 inHg , 1014.6 hPa
Clouds: Overcast
Visibility: 10 miles , 16 km
Cloud details: Overcast 6000 ft
2014/10/31 15:54 KNAK 311554Z AUTO 36006KT 10SM OVC060 12/02 A2996 RMK AO2 SLP148 T01170017
KW29 - Stevensville, Maryland, USA
Distance from station: SSE 31mi, 50km
Updated: Fri, 31-Oct-2014 11:56am EDT

 Wind from NNE
Wind: NNE 8 mph , 13 km/h
Temperature: 52°F , 11°C
Dew Point: 34°F , 1°C
Humidity: 50%
Barometer: 29.97 inHg , 1014.9 hPa
Visibility: 10 miles , 16 km
2014/10/31 15:56 KW29 311556Z AUTO 02007KT 10SM 11/01 A2997 RMK AO1
 
KCGS - College Park, Maryland, USA
Distance from station: SW 38mi, 61km
Updated: Fri, 31-Oct-2014 11:55am EDT
Overcast
Overcast
 Wind from NE
Wind: NE 5 mph , 7 km/h
Temperature: 54°F , 12°C
Dew Point: 37°F , 3°C
Humidity: 54%
Barometer: 29.96 inHg , 1014.6 hPa
Clouds: Overcast
Visibility: 10 miles , 16 km
Cloud details: Overcast 6000 ft
2014/10/31 15:55 KCGS 311555Z AUTO 05004KT 10SM OVC060 12/03 A2996 RMK AO1
KGAI - Gaithersburg, Maryland, USA
Distance from station: WSW 40mi, 65km
Updated: Fri, 31-Oct-2014 11:55am EDT
Overcast
Overcast
 Wind from NE
Wind: NE 3 mph , 6 km/h
Temperature: 50°F , 10°C
Dew Point: 37°F , 3°C
Humidity: 62%
Barometer: 30.00 inHg , 1015.9 hPa
Clouds: Overcast
Visibility: 10 miles , 16 km
Cloud details: Overcast 5000 ft
2014/10/31 15:55 KGAI 311555Z 05003KT 10SM OVC050 10/03 A3000 RMK AO1
 
KTHV - York, Pennsylvania, USA
Distance from station: NNW 40mi, 65km
Updated: Fri, 31-Oct-2014 11:53am EDT
Overcast
Overcast
 Wind from E
Wind: E 6 mph , 9 km/h
Temperature: 48°F , 9°C
Wind Chill: 45°F , 7°C
Dew Point: 36°F , 2°C
Humidity: 62%
Barometer: 29.98 inHg , 1015.2 hPa
Clouds: Overcast
Visibility: 10 miles , 16 km
Cloud details: Overcast 5500 ft
2014/10/31 15:53 KTHV 311553Z AUTO 08005KT 10SM OVC055 09/02 A2998 RMK AO2 SLP158 T00940022 $
KFDK - Frederick, Maryland, USA
Distance from station: W 47mi, 75km
Updated: Fri, 31-Oct-2014 11:45am EDT
Overcast
Overcast
 Wind from calm
Wind: Calm
Barometer: 30.01 inHg , 1016.3 hPa
Clouds: Overcast
Visibility: 10 miles , 16 km
Cloud details: Overcast 6000 ft
2014/10/31 15:45 KFDK 311545Z 00000KT 10SM OVC060 A3001
 
KESN - Easton/Newnam, Maryland, USA
Distance from station: SSE 48mi, 78km
Updated: Fri, 31-Oct-2014 11:50am EDT
Overcast
Overcast
 Wind from NNE
Wind: NNE 5 mph , 7 km/h
Temperature: 54°F , 12°C
Dew Point: 39°F , 4°C
Humidity: 58%
Barometer: 29.98 inHg , 1015.2 hPa
Clouds: Overcast
Visibility: 10 miles , 16 km
Cloud details: Overcast 8000 ft
2014/10/31 15:50 KESN 311550Z 02004KT 10SM OVC080 12/04 A2998
KDCA - Washington/Natl, Washington D.c., USA
Distance from station: SW 49mi, 79km
Updated: Fri, 31-Oct-2014 11:52am EDT
Mostly cloudy
Mostly cloudy
 Wind from NE
Wind: NE 7 mph , 11 km/h
Temperature: 55°F , 13°C
Dew Point: 37°F , 3°C
Humidity: 51%
Barometer: 29.96 inHg , 1014.6 hPa
Clouds: Mostly cloudy
Visibility: 10 miles , 16 km
Cloud details: Few Clouds 3500 ft
Mostly cloudy 6000 ft
2014/10/31 15:52 KDCA 311552Z 04006KT 10SM FEW035 BKN060 13/03 A2996 RMK AO2 SLP147 T01330028
 
KLNS - Lancaster, Pennsylvania, USA
Distance from station: N 49mi, 79km
Updated: Fri, 31-Oct-2014 11:53am EDT
Overcast
Overcast
 Wind from E
Wind: E 9 mph , 15 km/h
Temperature: 48°F , 9°C
Wind Chill: 44°F , 7°C
Dew Point: 32°F , 0°C
Humidity: 54%
Barometer: 29.99 inHg , 1015.6 hPa
Clouds: Overcast
Visibility: 10 miles , 16 km
Cloud details: Overcast 5500 ft
2014/10/31 15:53 KLNS 311553Z AUTO 10008KT 10SM OVC055 09/00 A2999 RMK AO2 SLP156 T00940000 $
KILG - Wilmington, Delaware, USA
Distance from station: ENE 50mi, 81km
Updated: Fri, 31-Oct-2014 11:51am EDT
Clear
Clear
 Wind from N
Wind: N 6 mph , 9 km/h
Temperature: 52°F , 11°C
Dew Point: 37°F , 3°C
Humidity: 58%
Barometer: 29.98 inHg , 1015.2 hPa
Clouds: Clear
Visibility: 10 miles , 16 km
2014/10/31 15:51 KILG 311551Z 01005KT 10SM CLR 11/03 A2998 RMK AO2 SLP150 T01060033